Time;durP1;ratioP1;P1;durP2;ratioP2;P2;SDS_P1;SDS_P2;PMS_P1;PMS_P2;Temp;Humidity;BMP_temperature;BMP_pressure;BME280_temperature;BME280_humidity;BME280_pressure;Samples;Min_cycle;Max_cycle;Signal;HPM_P1;HPM_P2
2022/02/01 00:00:44;;;;;;;3.20;2.50;;;5.40;1.00;6.00;67573.00;;;;5078254;28;20473;-82
2022/02/01 00:03:15;;;;;;;3.27;2.47;;;5.50;1.00;6.00;100539.00;;;;5065384;28;20485;-82
2022/02/01 00:05:51;;;;;;;3.10;2.70;;;5.60;1.00;6.00;100537.00;;;;5066969;28;20452;-81
2022/02/01 00:08:30;;;;;;;3.67;2.20;;;5.60;1.00;6.00;100557.00;;;;5068913;28;20467;-82
2022/02/01 00:11:09;;;;;;;5.33;2.70;;;5.60;1.00;6.10;100558.00;;;;5069021;28;20490;-80
2022/02/01 00:13:47;;;;;;;3.10;2.80;;;5.60;1.00;6.10;100543.00;;;;5074641;28;20467;-81
2022/02/01 00:16:46;;;;;;;3.17;2.87;;;5.70;1.00;6.20;100557.00;;;;5073664;28;20443;-80
2022/02/01 00:19:42;;;;;;;3.53;3.00;;;5.80;1.00;6.30;100564.00;;;;5072522;28;20549;-82
2022/02/01 00:33:33;;;;;;;3.40;2.83;;;6.00;1.00;217.30;159514.00;;;;5052390;28;20538;-83
2022/02/01 00:36:05;;;;;;;4.43;3.40;;;6.00;1.00;6.60;67715.00;;;;5050385;28;20444;-81
2022/02/01 00:38:39;;;;;;;5.43;3.40;;;6.10;1.00;6.70;67726.00;;;;5051233;28;20467;-81
2022/02/01 00:41:09;;;;;;;3.90;2.90;;;6.10;1.00;6.60;67726.00;;;;5054555;28;20586;-80
2022/02/01 00:43:37;;;;;;;3.63;2.87;;;6.20;1.00;6.70;67733.00;;;;5048247;28;20448;-83
2022/02/01 00:46:07;;;;;;;4.13;3.73;;;6.20;1.00;6.70;67726.00;;;;5050953;28;20452;-80
2022/02/01 00:48:36;;;;;;;3.17;2.87;;;6.20;1.00;217.30;159550.00;;;;5055529;28;20505;-81
2022/02/01 00:51:04;;;;;;;7.63;3.30;;;6.20;1.00;6.70;67733.00;;;;5061859;28;20522;-82
2022/02/01 00:53:33;;;;;;;4.67;3.50;;;6.20;1.00;6.60;67726.00;;;;5067983;28;20450;-81
2022/02/01 00:56:01;;;;;;;3.10;2.63;;;6.20;1.00;6.60;67720.00;;;;5065645;28;20463;-83
2022/02/01 00:58:29;;;;;;;2.87;2.57;;;6.20;1.00;6.60;100600.00;;;;5067336;28;20471;-82
2022/02/01 01:00:57;;;;;;;3.47;2.50;;;6.20;1.00;6.50;100605.00;;;;5066267;28;20551;-82
2022/02/01 01:03:28;;;;;;;2.60;2.40;;;6.20;1.00;6.50;67693.00;;;;5067007;28;20443;-83
2022/02/01 01:05:56;;;;;;;2.00;1.60;;;6.00;1.00;217.30;159437.00;;;;5059857;28;20460;-82
2022/02/01 01:08:25;;;;;;;2.03;1.80;;;5.90;1.00;6.30;100621.00;;;;5060176;28;20479;-82
2022/02/01 01:10:54;;;;;;;2.17;1.17;;;5.90;1.00;217.30;159405.00;;;;5059945;28;20499;-83
2022/02/01 01:13:48;;;;;;;1.77;1.07;;;5.80;1.00;6.30;100623.00;;;;5061720;28;20564;-82
2022/02/01 01:16:33;;;;;;;3.70;1.27;;;5.80;1.00;6.20;100641.00;;;;5063507;28;20442;-82
2022/02/01 01:38:43;;;;;;;3.43;1.07;;;5.80;1.00;6.20;100625.00;;;;5051440;28;20449;-81
2022/02/01 01:43:33;;;;;;;4.63;1.60;;;5.90;1.00;6.30;100658.00;;;;5055206;28;20447;-81
2022/02/01 01:44:38;;;;;;;7.27;2.07;;;5.80;1.00;6.40;100639.00;;;;5050111;28;20486;-81
2022/02/01 01:53:11;;;;;;;3.37;1.10;;;6.00;1.00;6.50;100684.00;;;;5046892;28;20444;-81
2022/02/01 01:55:43;;;;;;;2.60;1.17;;;6.10;1.00;217.30;159508.00;;;;5049949;28;20471;-81
2022/02/01 01:58:12;;;;;;;3.00;1.27;;;6.10;1.00;6.60;100696.00;;;;5051879;28;20460;-83
2022/02/01 02:01:00;;;;;;;5.63;1.50;;;6.20;1.00;6.60;100685.00;;;;5067068;28;20478;-81
2022/02/01 02:03:29;;;;;;;5.53;1.70;;;6.20;1.00;6.60;100700.00;;;;5055095;28;20467;-81
2022/02/01 02:05:58;;;;;;;5.83;1.90;;;6.20;1.00;6.60;100696.00;;;;5051062;28;20452;-80
2022/02/01 02:08:29;;;;;;;4.77;2.13;;;6.20;1.00;6.60;100703.00;;;;5062773;28;20478;-82
2022/02/01 02:11:03;;;;;;;5.10;2.20;;;6.20;1.00;6.60;100688.00;;;;5061616;28;20560;-82
2022/02/01 02:16:21;;;;;;;5.50;3.07;;;6.20;1.00;6.60;100717.00;;;;5064477;28;20456;-83
2022/02/01 02:18:50;;;;;;;8.43;3.03;;;6.40;1.00;6.50;100732.00;;;;5055383;28;20463;-81
2022/02/01 02:21:21;;;;;;;6.80;2.77;;;6.10;1.00;6.60;100724.00;;;;5057302;28;20443;-81
2022/02/01 02:23:49;;;;;;;17.20;4.30;;;6.10;1.00;6.50;100728.00;;;;5054680;28;20524;-81
2022/02/01 02:26:19;;;;;;;12.93;3.57;;;6.10;1.00;6.50;67698.00;;;;5049660;28;20452;-82
2022/02/01 02:28:48;;;;;;;9.30;3.50;;;6.00;1.00;6.50;100717.00;;;;5064625;28;20495;-81
2022/02/01 02:31:18;;;;;;;18.03;4.53;;;6.00;1.00;6.40;100721.00;;;;5055852;28;20875;-81
2022/02/01 02:33:46;;;;;;;13.83;3.90;;;6.00;1.00;6.30;100693.00;;;;5064727;28;20454;-81
2022/02/01 02:36:19;;;;;;;13.37;3.90;;;5.90;1.00;6.30;67657.00;;;;5071393;28;20535;-82
2022/02/01 02:38:56;;;;;;;15.43;4.10;;;6.00;1.00;217.30;159389.00;;;;5083960;28;20480;-81
2022/02/01 02:41:33;;;;;;;13.20;3.90;;;5.80;1.00;217.30;159367.00;;;;5063585;28;20960;-81
2022/02/01 02:46:52;;;;;;;13.83;3.80;;;5.80;1.00;6.20;100731.00;;;;5050399;28;20463;-80
2022/02/01 02:49:23;;;;;;;10.07;3.33;;;5.70;1.00;6.10;100745.00;;;;5050384;28;20492;-82
2022/02/01 02:51:53;;;;;;;17.87;4.43;;;5.60;1.00;6.00;100736.00;;;;5046156;28;20458;-82
2022/02/01 02:54:25;;;;;;;13.07;2.83;;;5.70;1.00;6.10;100755.00;;;;5051029;28;20937;-82
2022/02/01 02:56:56;;;;;;;15.43;4.30;;;5.50;1.00;6.10;100764.00;;;;5047342;28;20459;-80
2022/02/01 02:59:27;;;;;;;8.57;2.63;;;5.60;1.00;6.00;100756.00;;;;5047495;28;20483;-81
2022/02/01 03:01:56;;;;;;;13.67;2.80;;;5.50;1.00;5.90;100749.00;;;;5049013;28;20553;-82
2022/02/01 03:04:28;;;;;;;11.47;3.53;;;5.50;1.00;217.30;159222.00;;;;5068887;28;20448;-82
2022/02/01 03:06:58;;;;;;;7.90;2.77;;;5.50;1.00;5.90;100773.00;;;;5050658;28;20467;-82
2022/02/01 03:09:28;;;;;;;20.77;3.80;;;5.40;1.00;5.90;100782.00;;;;5047706;28;20487;-81
2022/02/01 03:11:59;;;;;;;13.50;4.10;;;5.40;1.00;5.90;100775.00;;;;5047442;28;20475;-81
2022/02/01 03:14:43;;;;;;;20.57;5.73;;;5.40;1.00;5.80;100783.00;;;;5047704;28;20448;-82
2022/02/01 03:17:19;;;;;;;15.33;3.83;;;5.40;1.00;5.80;100764.00;;;;5047390;28;20455;-81
2022/02/01 03:19:49;;;;;;;14.00;3.20;;;5.30;1.00;5.80;100766.00;;;;5047846;28;20467;-81
2022/02/01 03:22:20;;;;;;;13.53;3.87;;;5.30;1.00;5.70;100766.00;;;;5063419;28;20451;-81
2022/02/01 03:24:50;;;;;;;21.83;5.37;;;5.20;1.00;5.70;100777.00;;;;5050234;28;20450;-81
2022/02/01 03:27:19;;;;;;;18.03;3.07;;;5.20;1.00;5.70;100789.00;;;;5050383;28;20528;-81
2022/02/01 03:29:48;;;;;;;17.20;4.37;;;5.10;1.00;5.70;67524.00;;;;5052788;28;20490;-81
2022/02/01 03:32:19;;;;;;;16.63;3.87;;;5.10;1.00;5.80;100806.00;;;;5054044;28;20528;-81
2022/02/01 03:34:48;;;;;;;15.00;4.07;;;5.20;1.00;5.80;100800.00;;;;5050616;28;20452;-81
2022/02/01 03:37:17;;;;;;;11.90;3.80;;;5.20;1.00;5.80;67548.00;;;;5048907;28;20461;-81
2022/02/01 03:39:46;;;;;;;14.77;3.67;;;5.30;1.00;5.80;100813.00;;;;5051390;28;20491;-81
2022/02/01 03:42:16;;;;;;;17.97;3.90;;;5.30;1.00;5.80;100803.00;;;;5050516;28;20460;-82
2022/02/01 03:44:44;;;;;;;10.80;3.47;;;5.30;1.00;5.80;100817.00;;;;5049369;28;20463;-82
2022/02/01 03:47:13;;;;;;;14.70;4.30;;;5.20;1.00;52.70;159123.00;;;;5051911;28;20482;-82
2022/02/01 03:49:43;;;;;;;15.90;4.03;;;5.20;1.00;5.70;67515.00;;;;5066785;28;20495;-81
2022/02/01 03:52:12;;;;;;;15.90;3.67;;;5.20;1.00;5.60;100807.00;;;;5049813;28;20451;-81
2022/02/01 03:54:41;;;;;;;12.43;3.93;;;5.10;1.00;5.60;100804.00;;;;5050530;28;20451;-81
2022/02/01 03:57:14;;;;;;;17.30;4.53;;;5.10;1.00;5.60;100809.00;;;;5049995;28;20466;-81
2022/02/01 03:59:45;;;;;;;14.47;3.70;;;5.10;1.00;5.60;100822.00;;;;5049870;28;20495;-81
2022/02/01 04:02:16;;;;;;;17.83;4.20;;;5.00;1.00;5.50;100824.00;;;;5050884;28;20574;-81
2022/02/01 04:04:49;;;;;;;15.87;5.10;;;5.10;1.00;5.60;67487.00;;;;5051623;28;20502;-81
2022/02/01 04:07:17;;;;;;;14.53;4.27;;;5.10;1.00;5.60;100833.00;;;;5065542;28;20814;-81
2022/02/01 04:09:45;;;;;;;12.53;4.00;;;5.10;1.00;5.60;100811.00;;;;5049794;28;20490;-81
2022/02/01 04:12:14;;;;;;;18.40;4.57;;;5.10;1.00;217.30;159123.00;;;;5051842;28;20452;-82
2022/02/01 04:14:46;;;;;;;13.73;4.20;;;5.10;1.00;5.70;100817.00;;;;5049476;28;20588;-82
2022/02/01 04:17:14;;;;;;;13.90;4.60;;;5.20;1.00;5.70;100826.00;;;;5054026;28;20467;-83
2022/02/01 04:19:45;;;;;;;13.87;5.03;;;5.20;1.00;5.80;100837.00;;;;5055055;28;20941;-80
2022/02/01 04:22:15;;;;;;;19.93;5.37;;;5.20;1.00;5.80;67543.00;;;;5053925;28;20795;-81
2022/02/01 04:24:45;;;;;;;19.27;4.83;;;5.30;1.00;5.90;100831.00;;;;5067060;28;20443;-82
2022/02/01 04:27:28;;;;;;;13.00;4.43;;;5.30;1.00;5.80;100849.00;;;;5055106;28;20444;-81
2022/02/01 04:30:06;;;;;;;14.63;5.07;;;5.30;1.00;5.80;100834.00;;;;5035719;28;20995;-81
2022/02/01 04:32:36;;;;;;;15.77;4.60;;;5.40;1.00;5.80;100846.00;;;;5046065;28;20462;-81
2022/02/01 04:35:08;;;;;;;16.47;5.20;;;5.40;1.00;5.80;100855.00;;;;5047190;28;20456;-82
2022/02/01 04:37:37;;;;;;;12.53;3.67;;;5.40;1.00;5.90;100880.00;;;;5048314;28;20452;-82
2022/02/01 04:40:11;;;;;;;12.27;4.60;;;5.40;1.00;5.80;100873.00;;;;5048081;28;20506;-82
2022/02/01 04:42:41;;;;;;;12.00;4.00;;;5.40;1.00;5.80;100857.00;;;;5048054;28;20825;-82
2022/02/01 04:45:14;;;;;;;11.37;4.50;;;5.30;1.00;5.70;100859.00;;;;5047934;28;20463;-82
2022/02/01 04:47:45;;;;;;;11.17;4.20;;;5.20;1.00;5.70;67509.00;;;;5050998;28;20454;-82
2022/02/01 04:50:17;;;;;;;15.40;6.57;;;5.10;1.00;5.60;67502.00;;;;5050730;28;20479;-82
2022/02/01 04:52:48;;;;;;;13.70;5.37;;;5.10;1.00;5.60;100880.00;;;;5053813;28;20462;-82
2022/02/01 04:55:17;;;;;;;13.27;4.83;;;5.10;1.00;5.50;67479.00;;;;5052047;28;20444;-82
2022/02/01 04:57:56;;;;;;;16.97;4.80;;;5.00;1.00;5.50;100869.00;;;;5047940;28;20482;-83
2022/02/01 05:00:28;;;;;;;18.27;5.50;;;5.00;1.00;5.50;100852.00;;;;5050596;28;20487;-82
2022/02/01 05:02:59;;;;;;;15.60;4.90;;;5.00;1.00;5.50;100865.00;;;;5049664;28;20455;-82
2022/02/01 05:05:29;;;;;;;19.37;6.60;;;5.00;1.00;5.60;67484.00;;;;5050042;28;20460;-82
2022/02/01 05:08:00;;;;;;;17.33;6.17;;;5.10;1.00;5.50;100863.00;;;;5048531;28;20448;-82
2022/02/01 05:10:32;;;;;;;20.03;5.83;;;5.00;1.00;5.50;100867.00;;;;5050921;28;20482;-82
2022/02/01 05:13:21;;;;;;;20.83;5.80;;;5.00;1.00;5.30;100854.00;;;;5053657;28;20448;-82
2022/02/01 05:15:58;;;;;;;19.23;6.60;;;5.00;1.00;5.10;67395.00;;;;5054760;28;20838;-82
2022/02/01 05:18:29;;;;;;;18.73;6.80;;;4.60;1.00;5.10;100850.00;;;;5053337;28;20530;-83
2022/02/01 05:21:03;;;;;;;10.50;4.30;;;4.60;1.00;5.10;67378.00;;;;5051673;28;20491;-83
2022/02/01 05:23:31;;;;;;;16.70;5.03;;;4.50;1.00;5.00;67365.00;;;;5046877;28;20456;-83
2022/02/01 05:26:00;;;;;;;18.10;5.27;;;4.50;1.00;5.00;100834.00;;;;5047756;28;20455;-83
2022/02/01 05:28:28;;;;;;;15.40;5.57;;;4.70;1.00;5.00;67362.00;;;;5048126;28;20451;-83
2022/02/01 05:31:02;;;;;;;17.33;5.20;;;4.50;1.00;5.00;100847.00;;;;5049134;28;20488;-83
2022/02/01 05:33:31;;;;;;;16.10;4.23;;;4.50;1.00;5.00;100851.00;;;;5048386;28;20521;-83
2022/02/01 05:36:03;;;;;;;16.43;6.47;;;4.60;1.00;5.00;100868.00;;;;5049892;28;20971;-82
2022/02/01 05:38:32;;;;;;;13.43;5.37;;;4.50;1.00;5.10;100858.00;;;;5050356;28;20456;-83
2022/02/01 05:41:00;;;;;;;24.53;9.13;;;4.50;1.00;5.10;67393.00;;;;5050533;28;20495;-83
2022/02/01 05:43:29;;;;;;;18.17;5.57;;;4.60;1.00;5.10;100870.00;;;;5051641;28;20467;-83
2022/02/01 05:46:01;;;;;;;19.20;4.67;;;4.60;1.00;5.00;67357.00;;;;5061597;28;20479;-83
2022/02/01 05:48:29;;;;;;;13.93;6.23;;;4.50;1.00;4.90;100883.00;;;;5070522;28;20468;-84
2022/02/01 05:51:00;;;;;;;23.23;7.20;;;4.40;1.00;4.90;100888.00;;;;5069683;28;20598;-83
2022/02/01 05:53:28;;;;;;;10.67;3.93;;;4.50;1.00;5.00;100873.00;;;;5055488;28;20463;-83
2022/02/01 05:55:56;;;;;;;10.77;4.77;;;4.50;1.00;5.10;100864.00;;;;5053732;28;20471;-82
2022/02/01 05:58:25;;;;;;;11.57;4.50;;;4.70;1.00;5.10;100832.00;;;;5052296;28;21264;-83
2022/02/01 06:00:53;;;;;;;17.57;5.47;;;4.60;1.00;5.10;100844.00;;;;5047002;28;20490;-82
2022/02/01 06:03:23;;;;;;;14.70;5.27;;;4.70;1.00;5.20;67401.00;;;;5047288;28;20972;-81
2022/02/01 06:05:51;;;;;;;12.93;4.60;;;4.70;1.00;5.20;100849.00;;;;5044310;28;20713;-82
2022/02/01 06:08:19;;;;;;;17.33;4.70;;;4.90;1.00;5.30;67422.00;;;;5045798;28;20483;-81
2022/02/01 06:10:48;;;;;;;17.43;4.93;;;4.80;1.00;5.40;100860.00;;;;5048001;28;20475;-83
2022/02/01 06:13:16;;;;;;;9.03;4.07;;;4.90;1.00;5.50;100877.00;;;;5050108;28;20460;-82
2022/02/01 06:15:44;;;;;;;13.87;3.77;;;5.00;1.00;5.50;100893.00;;;;5062587;28;20479;-82
2022/02/01 06:18:12;;;;;;;11.37;4.27;;;5.00;1.00;5.50;67479.00;;;;5060104;28;20464;-81
2022/02/01 06:20:42;;;;;;;14.43;3.90;;;5.00;1.00;5.60;67492.00;;;;5050607;28;20483;-82
2022/02/01 06:23:14;;;;;;;10.80;4.33;;;5.20;1.00;5.60;67498.00;;;;5055827;28;20448;-82
2022/02/01 06:25:51;;;;;;;14.20;4.20;;;5.10;1.00;217.30;159107.00;;;;5049884;28;20452;-81
2022/02/01 06:28:22;;;;;;;13.10;5.43;;;5.10;1.00;5.70;67518.00;;;;5070537;28;21600;-82
2022/02/01 06:30:51;;;;;;;13.90;4.07;;;5.20;1.00;52.70;159113.00;;;;5066792;28;20485;-81
2022/02/01 06:33:21;;;;;;;14.90;4.07;;;5.20;1.00;217.30;159153.00;;;;5065644;28;20455;-80
2022/02/01 06:35:51;;;;;;;17.97;3.80;;;5.30;1.00;5.70;100918.00;;;;5063131;28;20944;-80
2022/02/01 06:38:20;;;;;;;10.20;3.60;;;5.20;1.00;52.70;159139.00;;;;5059300;28;20479;-81
2022/02/01 06:40:49;;;;;;;10.07;4.20;;;5.20;1.00;5.70;100882.00;;;;5053812;28;20463;-82
2022/02/01 06:43:18;;;;;;;14.33;4.10;;;5.20;1.00;5.70;100878.00;;;;5066954;28;20478;-81
2022/02/01 06:45:46;;;;;;;13.97;3.20;;;5.20;1.00;5.70;100906.00;;;;5065711;28;20539;-80
2022/02/01 06:48:15;;;;;;;13.87;4.87;;;5.30;1.00;5.80;100891.00;;;;5074258;28;21704;-80
2022/02/01 06:50:46;;;;;;;14.90;3.60;;;5.30;1.00;5.80;100863.00;;;;5049803;28;20479;-81
2022/02/01 06:53:17;;;;;;;10.13;3.50;;;5.40;1.00;5.90;100839.00;;;;5056357;28;20436;-82
2022/02/01 06:55:57;;;;;;;9.80;2.93;;;5.40;1.00;5.90;100851.00;;;;5074160;28;20519;-81
2022/02/01 06:58:25;;;;;;;11.90;3.03;;;5.40;1.00;5.90;100846.00;;;;5056968;28;20448;-81
2022/02/01 07:00:54;;;;;;;10.97;4.43;;;5.40;1.00;5.90;100870.00;;;;5049445;28;20495;-81
2022/02/01 07:03:23;;;;;;;11.40;3.23;;;5.40;1.00;5.90;100857.00;;;;5048319;28;20444;-80
2022/02/01 07:05:52;;;;;;;8.77;2.80;;;5.40;1.00;5.90;100850.00;;;;5046776;28;20456;-81
2022/02/01 07:08:23;;;;;;;11.93;3.13;;;5.40;1.00;5.90;100869.00;;;;5050449;28;21460;-81
2022/02/01 07:10:51;;;;;;;12.00;3.23;;;5.50;1.00;6.00;100861.00;;;;5063923;28;20587;-80
2022/02/01 07:13:19;;;;;;;13.33;3.33;;;5.50;1.00;6.00;100863.00;;;;5054635;28;20459;-81
2022/02/01 07:15:48;;;;;;;12.80;3.80;;;5.50;1.00;6.00;100861.00;;;;5052282;28;20444;-81
2022/02/01 07:18:16;;;;;;;13.53;2.87;;;5.80;1.00;6.10;67609.00;;;;5050968;28;20448;-82
2022/02/01 07:20:44;;;;;;;11.23;3.13;;;5.60;1.00;6.20;100858.00;;;;5055482;28;20479;-82
2022/02/01 07:23:20;;;;;;;14.50;3.90;;;5.90;1.00;6.20;67634.00;;;;5065696;28;20455;-83
2022/02/01 07:25:50;;;;;;;18.23;2.87;;;5.70;1.00;6.20;100856.00;;;;5066122;28;20459;-83
2022/02/01 07:28:22;;;;;;;9.47;2.40;;;5.80;1.00;6.20;67638.00;;;;5064978;28;20810;-83
2022/02/01 07:30:51;;;;;;;12.60;3.00;;;5.70;1.00;6.20;100875.00;;;;5064359;28;20542;-82
2022/02/01 07:33:21;;;;;;;11.03;2.90;;;5.70;1.00;6.20;67614.00;;;;5065018;28;20455;-82
2022/02/01 07:35:50;;;;;;;14.23;3.00;;;5.70;1.00;217.30;159337.00;;;;5063874;28;20459;-82
2022/02/01 07:38:22;;;;;;;8.67;3.00;;;5.70;1.00;6.20;67634.00;;;;5061033;28;20466;-82
2022/02/01 07:40:52;;;;;;;13.50;4.20;;;5.70;1.00;6.20;67634.00;;;;5060767;28;21033;-82
2022/02/01 07:43:22;;;;;;;7.43;2.37;;;6.00;1.00;6.30;67631.00;;;;5061451;28;20460;-82
2022/02/01 07:45:51;;;;;;;9.17;2.50;;;5.80;1.00;217.30;159383.00;;;;5062346;28;20460;-83
2022/02/01 07:48:20;;;;;;;11.43;2.70;;;5.80;1.00;6.30;100834.00;;;;5060968;28;20486;-83
2022/02/01 07:50:48;;;;;;;14.77;3.00;;;5.80;1.00;6.30;100835.00;;;;5058847;28;20490;-82
2022/02/01 07:53:17;;;;;;;11.20;3.03;;;5.80;1.00;6.30;67651.00;;;;5062430;28;20452;-82
2022/02/01 07:55:45;;;;;;;13.50;3.63;;;5.80;1.00;6.30;67657.00;;;;5061474;28;20494;-82
2022/02/01 07:58:15;;;;;;;9.90;3.03;;;5.80;1.00;217.30;159389.00;;;;5059744;28;20459;-83
2022/02/01 08:00:43;;;;;;;12.40;4.03;;;5.90;1.00;6.40;67648.00;;;;5065148;28;20539;-82
2022/02/01 08:03:12;;;;;;;7.40;2.47;;;5.90;1.00;217.30;159389.00;;;;5063225;28;20455;-81
2022/02/01 08:05:41;;;;;;;12.27;3.00;;;6.00;1.00;6.40;67668.00;;;;5064108;28;20892;-83
2022/02/01 08:08:11;;;;;;;11.50;3.00;;;5.90;1.00;6.40;67677.00;;;;5061699;28;20440;-82
2022/02/01 08:10:43;;;;;;;11.00;2.83;;;5.90;1.00;6.50;100877.00;;;;5063021;28;20479;-84
2022/02/01 08:18:56;;;;;;;7.43;2.27;;;6.20;1.00;6.40;67674.00;;;;5064110;28;20564;-83
2022/02/01 08:21:46;;;;;;;11.27;3.33;;;5.90;1.00;6.50;100837.00;;;;5059413;28;20509;-83
2022/02/01 08:24:15;;;;;;;9.30;2.57;;;6.00;1.00;6.50;67693.00;;;;5058265;28;21022;-84
2022/02/01 08:26:44;;;;;;;4.97;2.50;;;6.20;1.00;217.30;159431.00;;;;5062298;28;20456;-82
2022/02/01 08:29:15;;;;;;;10.53;3.37;;;6.00;1.00;6.40;67685.00;;;;5062723;28;20467;-81
2022/02/01 08:31:47;;;;;;;10.17;3.20;;;5.90;1.00;217.30;159405.00;;;;5061148;28;20575;-81
2022/02/01 08:34:16;;;;;;;5.77;2.77;;;5.90;1.00;6.30;67651.00;;;;5063828;28;20466;-82
2022/02/01 08:36:45;;;;;;;6.53;2.50;;;5.80;1.00;6.40;67668.00;;;;5063108;28;20458;-83
2022/02/01 08:39:13;;;;;;;10.10;3.73;;;6.00;1.00;6.30;67651.00;;;;5079714;28;20484;-82
2022/02/01 08:41:42;;;;;;;7.83;2.87;;;5.80;1.00;217.30;159421.00;;;;5061849;28;21024;-83
2022/02/01 08:44:14;;;;;;;10.40;3.70;;;5.90;1.00;6.40;100853.00;;;;5059532;28;20468;-83
2022/02/01 08:46:43;;;;;;;10.77;3.23;;;5.90;1.00;217.30;159431.00;;;;5060248;28;20452;-83
2022/02/01 08:49:13;;;;;;;9.00;2.67;;;5.90;1.00;6.40;67685.00;;;;5061130;28;21308;-83
2022/02/01 08:51:43;;;;;;;9.83;2.50;;;5.90;1.00;6.40;67688.00;;;;5061471;28;20536;-82
2022/02/01 08:54:19;;;;;;;8.80;3.03;;;5.90;1.00;6.50;100834.00;;;;5061320;28;20456;-83
2022/02/01 08:59:35;;;;;;;7.30;3.07;;;5.90;1.00;6.50;67705.00;;;;5059951;28;20476;-82
2022/02/01 09:02:04;;;;;;;12.50;3.63;;;6.00;1.00;217.30;159524.00;;;;5060097;28;20444;-82
2022/02/01 09:04:34;;;;;;;10.80;3.00;;;6.10;1.00;6.70;100817.00;;;;5075712;28;20468;-82
2022/02/01 09:07:04;;;;;;;10.83;3.00;;;6.20;1.00;6.70;67733.00;;;;5062693;28;20495;-83
2022/02/01 09:09:33;;;;;;;8.17;3.40;;;6.20;1.00;217.30;159524.00;;;;5061069;28;20544;-83
2022/02/01 09:12:02;;;;;;;7.13;2.93;;;6.30;1.00;6.60;67726.00;;;;5059908;28;20527;-82
2022/02/01 09:14:31;;;;;;;8.57;2.93;;;6.30;1.00;6.70;100821.00;;;;5060541;28;20520;-82
2022/02/01 09:17:03;;;;;;;6.20;2.53;;;6.10;1.00;6.70;100820.00;;;;5064022;28;20448;-82
2022/02/01 09:19:32;;;;;;;8.10;3.23;;;6.20;1.00;217.30;159556.00;;;;5070029;28;20448;-82
2022/02/01 09:22:01;;;;;;;8.03;2.80;;;6.20;1.00;6.80;100797.00;;;;5075714;28;20468;-83
2022/02/01 09:24:30;;;;;;;4.90;2.50;;;6.20;1.00;6.70;67737.00;;;;5072971;28;20460;-82
2022/02/01 09:26:59;;;;;;;7.43;2.67;;;6.20;1.00;6.60;67726.00;;;;5067048;28;20460;-81
2022/02/01 09:29:28;;;;;;;6.50;2.70;;;6.10;1.00;6.70;100725.00;;;;5063381;28;20547;-83
2022/02/01 09:31:58;;;;;;;5.93;2.90;;;6.30;1.00;217.30;159573.00;;;;5067572;28;20532;-82
2022/02/01 09:34:29;;;;;;;9.70;3.20;;;6.20;1.00;6.80;78122.00;;;;5059833;28;20459;-83
2022/02/01 09:37:00;;;;;;;6.50;3.00;;;6.30;1.00;217.30;159657.00;;;;5062255;28;20459;-82
2022/02/01 09:39:28;;;;;;;7.23;2.70;;;6.40;1.00;7.00;67810.00;;;;5062701;28;20479;-83
2022/02/01 09:41:59;;;;;;;9.07;3.80;;;6.50;1.00;217.30;159734.00;;;;5064864;28;20978;-82
2022/02/01 09:44:28;;;;;;;7.20;3.43;;;6.80;1.00;7.00;67814.00;;;;5062925;28;21511;-83
2022/02/01 09:46:57;;;;;;;10.53;4.27;;;6.50;1.00;7.00;67821.00;;;;5062096;28;20482;-82
2022/02/01 09:49:27;;;;;;;7.63;2.57;;;6.60;1.00;7.00;67815.00;;;;5062001;28;20479;-83
2022/02/01 09:51:59;;;;;;;12.20;3.63;;;6.60;1.00;7.00;67810.00;;;;5059681;28;20486;-82
2022/02/01 09:54:30;;;;;;;9.13;2.50;;;6.50;1.00;7.00;100686.00;;;;5061854;28;20456;-81
2022/02/01 09:57:04;;;;;;;7.60;3.10;;;6.50;1.00;217.30;159699.00;;;;5063915;28;20524;-82
2022/02/01 09:59:35;;;;;;;8.87;3.30;;;6.50;1.00;217.30;159693.00;;;;5063920;28;20471;-82
2022/02/01 10:02:08;;;;;;;10.60;3.90;;;6.50;1.00;7.10;100756.00;;;;5063098;28;20836;-83
2022/02/01 10:04:39;;;;;;;6.97;2.50;;;6.60;1.00;7.10;67837.00;;;;5063052;28;20489;-82
2022/02/01 10:07:10;;;;;;;10.27;2.80;;;6.60;1.00;217.30;159734.00;;;;5061891;28;20480;-82
2022/02/01 10:09:52;;;;;;;7.20;2.90;;;6.80;1.00;7.10;100762.00;;;;5057635;28;21023;-82
2022/02/01 10:12:22;;;;;;;8.23;2.30;;;6.60;1.00;7.10;67835.00;;;;5060220;28;20479;-83
2022/02/01 10:14:57;;;;;;;11.20;4.10;;;6.60;1.00;7.20;100729.00;;;;5062960;28;20471;-82
2022/02/01 10:17:28;;;;;;;6.80;2.27;;;6.60;1.00;217.30;159756.00;;;;5059938;28;20459;-82
2022/02/01 10:19:57;;;;;;;8.83;2.33;;;6.60;1.00;7.10;67828.00;;;;5061508;28;20510;-83
2022/02/01 10:22:34;;;;;;;9.70;3.23;;;6.80;1.00;7.20;100710.00;;;;5059980;28;20527;-82
2022/02/01 10:25:06;;;;;;;6.10;2.40;;;6.70;1.00;217.30;159734.00;;;;5060411;28;20459;-82
2022/02/01 10:27:41;;;;;;;6.57;2.57;;;6.70;1.00;7.10;67843.00;;;;5077055;28;21307;-83
2022/02/01 10:30:13;;;;;;;10.20;2.90;;;6.60;1.00;7.20;67873.00;;;;5061487;28;20456;-82
2022/02/01 10:33:11;;;;;;;9.37;2.70;;;6.70;1.00;7.50;100705.00;;;;5058638;28;20495;-82
2022/02/01 10:35:55;;;;;;;10.23;2.87;;;6.90;1.00;7.50;100692.00;;;;5055417;28;20455;-82
2022/02/01 10:38:32;;;;;;;9.50;2.77;;;7.00;1.00;7.40;100690.00;;;;5058482;28;20456;-81
2022/02/01 10:41:03;;;;;;;4.47;2.40;;;7.00;1.00;7.30;67877.00;;;;5058933;28;20574;-82
2022/02/01 10:43:33;;;;;;;6.20;2.47;;;6.90;1.00;217.30;159803.00;;;;5056157;28;20502;-82
2022/02/01 10:46:09;;;;;;;8.50;2.60;;;6.70;1.00;7.30;100656.00;;;;5051153;28;20461;-81
2022/02/01 10:48:39;;;;;;;10.33;3.03;;;6.80;1.00;7.20;100646.00;;;;5056523;28;20448;-83
2022/02/01 10:51:14;;;;;;;10.03;2.90;;;6.70;1.00;7.30;100626.00;;;;5062288;28;20480;-82
2022/02/01 10:53:44;;;;;;;5.40;2.27;;;6.80;1.00;7.50;100377.00;;;;5063641;28;20478;-84
2022/02/01 10:56:16;;;;;;;5.33;2.27;;;6.90;1.00;217.30;159803.00;;;;5057917;28;20500;-82
2022/02/01 10:58:45;;;;;;;6.63;2.20;;;7.00;1.00;7.20;100622.00;;;;5048311;28;20880;-82
2022/02/01 11:01:15;;;;;;;7.80;2.20;;;6.70;1.00;7.10;100590.00;;;;5048807;28;20499;-82
2022/02/01 11:03:47;;;;;;;7.07;3.60;;;6.70;1.00;7.20;100613.00;;;;5047888;28;20510;-82
2022/02/01 11:06:17;;;;;;;8.00;2.10;;;6.60;1.00;7.20;100602.00;;;;5046583;28;20502;-81
2022/02/01 11:08:46;;;;;;;8.47;2.73;;;6.70;1.00;7.10;100598.00;;;;5047420;28;20505;-82
2022/02/01 11:11:22;;;;;;;8.37;2.40;;;6.60;1.00;7.00;100596.00;;;;5055875;28;20516;-81
2022/02/01 11:13:51;;;;;;;4.73;2.47;;;6.50;1.00;6.70;67740.00;;;;5050883;28;20562;-82
2022/02/01 11:16:23;;;;;;;8.40;2.90;;;6.30;1.00;6.60;100576.00;;;;5050794;28;20989;-84
2022/02/01 11:18:57;;;;;;;5.40;2.03;;;6.10;1.00;6.50;100543.00;;;;5045757;28;20535;-83
2022/02/01 11:21:29;;;;;;;9.27;3.00;;;6.00;1.00;6.60;67715.00;;;;5048523;28;20910;-83
2022/02/01 11:24:04;;;;;;;8.53;3.33;;;6.00;1.00;6.60;100572.00;;;;5067419;28;20458;-82
2022/02/01 11:26:38;;;;;;;10.30;3.83;;;6.00;1.00;6.60;100537.00;;;;5061996;28;20517;-84
2022/02/01 11:29:28;;;;;;;6.40;2.50;;;6.00;1.00;6.50;67688.00;;;;5063352;28;20456;-84
2022/02/01 11:31:59;;;;;;;8.73;3.83;;;5.90;1.00;6.50;67687.00;;;;5062573;28;20479;-84
2022/02/01 11:34:32;;;;;;;4.90;1.97;;;5.90;1.00;6.40;67663.00;;;;5061790;28;20759;-82
2022/02/01 11:37:07;;;;;;;9.83;2.93;;;5.80;1.00;217.30;159421.00;;;;5064195;28;20439;-83
2022/02/01 11:39:36;;;;;;;9.63;2.87;;;5.80;1.00;217.30;159494.00;;;;5061750;28;20471;-82
2022/02/01 11:42:13;;;;;;;7.60;2.97;;;6.00;1.00;217.30;159524.00;;;;5060963;28;20459;-83
2022/02/01 11:44:42;;;;;;;9.63;2.33;;;6.00;1.00;217.30;159494.00;;;;5064637;28;20530;-86
2022/02/01 11:47:13;;;;;;;6.70;3.20;;;6.10;1.00;6.50;67687.00;;;;5064806;28;20506;-84
2022/02/01 11:49:53;;;;;;;10.00;2.90;;;6.00;1.00;6.50;100524.00;;;;5062991;28;20503;-82
2022/02/01 11:52:26;;;;;;;7.67;2.63;;;5.90;1.00;6.40;67663.00;;;;5064349;28;20515;-83
2022/02/01 11:55:03;;;;;;;6.90;2.50;;;5.90;1.00;217.30;159369.00;;;;5068267;28;20582;-84
2022/02/01 11:57:53;;;;;;;11.37;4.50;;;5.80;1.00;217.30;159353.00;;;;5065287;28;20456;-83
2022/02/01 12:00:25;;;;;;;5.17;2.23;;;5.70;1.00;217.30;159359.00;;;;5064463;28;20995;-84
2022/02/01 12:03:00;;;;;;;6.70;2.60;;;5.80;1.00;6.30;67634.00;;;;5064546;28;20478;-83
2022/02/01 12:05:31;;;;;;;8.17;2.60;;;5.70;1.00;6.30;67648.00;;;;5066616;28;20455;-83
2022/02/01 12:08:06;;;;;;;4.67;2.53;;;5.70;1.00;217.30;159337.00;;;;5084443;28;20435;-83
2022/02/01 12:10:41;;;;;;;4.20;3.03;;;5.70;1.00;6.20;67626.00;;;;5066977;28;20495;-82
2022/02/01 12:13:12;;;;;;;9.63;3.50;;;5.70;1.00;6.30;67648.00;;;;5067099;28;20481;-82
2022/02/01 12:15:42;;;;;;;5.67;3.03;;;5.70;1.00;6.30;100464.00;;;;5065188;28;20463;-82